AirNav   Everest Fuels
 
 1684 users online  

ID85 Elk River Airport
Elk River, Idaho, USA

GOING TO ELK RIVER?


FAA INFORMATION EFFECTIVE 11 AUGUST 2022

Location

FAA Identifier: ID85
Lat/Long: 46-47-14.6510N 116-10-03.5400W
46-47.244183N 116-10.059000W
46.7874031,-116.1676500
(estimated)
Elevation: 2827 ft. / 862 m (estimated)
Variation: 19E (1985)
Time zone: UTC -7 (UTC -8 during Standard Time)
Zip code: 83520

Airport Operations

Airport use: Private use. Permission required prior to landing
Activation date: 05/1947
Control tower: no
ARTCC: SEATTLE CENTER
FSS: BOISE FLIGHT SERVICE STATION
Attendance: UNATNDD
Wind indicator: yes
Segmented circle: no

Nearby radio navigation aids

VOR radial/distance  VOR name  Freq  Var
MQGr030/37.8NEZ PERCE VOR/DME108.2020E

Airport Services

Airframe service: NONE
Powerplant service: NONE
Bottled oxygen: NONE
Bulk oxygen: NONE

Runway Information

Runway 17/35

Dimensions: 3000 x 150 ft. / 914 x 46 m
MAINTAINED OPNL WIDTH APRXLY 20 FT.
Surface: turf/gravel, in good condition
RUNWAY 17  RUNWAY 35
Traffic pattern: leftleft
Runway end identifier lights: no
Obstructions: 80 ft. fence, 800 ft. from runway, 10:1 slope to clearfence

Airport Ownership and Management from official FAA records

Ownership: Privately-owned
Owner: C-PTPA/USFS
10250 HWY 12
OROFINO, ID 83544
Phone (208) 476-5612
LEASEE. OWNER OF PROPERTY IS CLEARWATER - POTLATCH TIMBER PROTECTION ASSOCIATION (C-PTPA) 10250 HWY 12 DROFINO, ID 83544 (208) 476-5612.
Manager: CHIEF FIRE WARDEN
10250 HWY 12
OROFINO, ID 83544
Phone 208-476-5612

Airport Operational Statistics

Aircraft operations: avg 67/month *
88% transient general aviation
12% local general aviation
* for 12-month period ending 22 May 1985

Additional Remarks

NO WINTER MAINTENANCE.
NUMEROUS (IN TOWN) OBSTNS ON APCH TO RY 35.
FOR CD CTC SEATTLE ARTCC AT 253-351-3694.
(CONTACT TITLE) ADDITIONAL CONTACT: NICK GRACHANIN - 208-935-8061 - NFGRACHANIN@GMAIL,COM

Instrument Procedures

There are no published instrument procedures at ID85.

Some nearby airports with instrument procedures:

KPUW - Pullman/Moscow Regional Airport (39 nm W)
KLWS - Lewiston/Nez Perce County Airport (43 nm SW)
KGIC - Idaho County Airport (51 nm S)
KCOE - Coeur d'Alene Airport - Pappy Boyington Field (65 nm NW)
KSFF - Felts Field Airport (71 nm NW)
 
Loc | Ops | Rwys | IFR | FBO | Links
Com | Nav | Svcs | Stats | Notes
Area around ID85 (Elk River Airport)
 
Road maps at: MapQuest Bing Google
 
Aerial photo
WARNING: Photo may not be current or correct
Aerial photo of ID85 (Elk River Airport)
Do you have a better or more recent aerial photo of Elk River Airport that you would like to share? If so, please send us your photo.

 
Sectional chart

 
Airport distance calculator
Flying to Elk River Airport? Find the distance to fly.

From to ID85

Sunrise and sunset
Times for 17-Aug-2022
 Local
(UTC-7)
 Zulu
(UTC)
Morning civil twilight05:1312:13
Sunrise05:4612:46
Sunset19:5102:51
Evening civil twilight20:2403:24

Current date and time
Zulu (UTC)  17-Aug-2022 21:04:30
Local (UTC-7)  17-Aug-2022 14:04:30
 
METAR
KPUW 
39nm W 
172053Z AUTO 00000KT 10SM CLR 34/06 A3007 RMK AO2 SLP165 T03440056 58009
KLWS 
43nm SW 
172056Z VRB04KT 10SM CLR 38/07 A2997 RMK AO2 SLP134 T03780067 58018
KMLP 
45nm NE 
172053Z AUTO 00000KT 10SM CLR 29/M08 A3032 RMK AO2 SLP146 T02891083 58003 $
KP69 
45nm SE 
172052Z AUTO 00000KT 36/10 A2996 RMK AO1 SLP117 T03610100 56031
TAF
KPUW 
39nm W 
171720Z 1718/1818 09006KT P6SM FEW250 FM172200 VRB03KT P6SM FEW250
KLWS 
43nm SW 
171720Z 1718/1818 VRB04KT P6SM FEW250
NOTAMs
Click for the latest NOTAMs
NOTAMs are issued by the DoD/FAA and will open in a separate window not controlled by AirNav.

 

 
 

Where to Eat: Catering, Restaurants, Food shops

  
 Business Name 
 
 Contact 
 
 Services / Description 
 
Distance
 
Comments
  
Elk River Country Cafe 208-826-3398
no information available

If you are affiliated with Elk River Country Cafe and would like to show here your services, contact info, web link, logo, and more, click here
0.25 miles  
   write
 

Would you like to see your business listed on this page?

 If your business provides an interesting product or service to pilots, flight crews, aircraft, or users of the Elk River Airport, you should consider listing it here.  To start the listing process, click on the button below
 
Add a business
 

Other Pages about Elk River Airport

www.elkriveridaho.org/AIRSTRIP.HTM
community.palouse.net/...
 
Update a link
 
Copyright © AirNav, LLC. All rights reserved. Privacy Policy  Contact